Time;durP1;ratioP1;P1;durP2;ratioP2;P2;SDS_P1;SDS_P2;PMS_P1;PMS_P2;Temp;Humidity;BMP_temperature;BMP_pressure;BME280_temperature;BME280_humidity;BME280_pressure;Samples;Min_cycle;Max_cycle;Signal;HPM_P1;HPM_P2
2023/01/25 00:01:17;;;;;;;30.07;19.23;;;;;;;16.93;51.80;97974.56;10369291;28;20037;-27
2023/01/25 00:06:17;;;;;;;26.43;18.57;;;;;;;16.94;51.86;97963.63;10371432;28;20041;-27
2023/01/25 00:11:19;;;;;;;25.60;18.70;;;;;;;16.97;51.87;97955.22;10369480;28;20026;-27
2023/01/25 00:16:19;;;;;;;27.63;18.58;;;;;;;16.98;51.73;97959.50;10364115;28;20041;-28
2023/01/25 00:21:23;;;;;;;25.73;17.58;;;;;;;16.96;51.91;97958.56;10370856;28;20037;-27
2023/01/25 00:26:23;;;;;;;28.08;17.83;;;;;;;16.94;52.10;97947.56;10368149;28;20513;-27
2023/01/25 00:31:33;;;;;;;27.07;17.90;;;;;;;16.93;52.16;97933.22;10363230;28;20045;-26
2023/01/25 00:36:40;;;;;;;27.27;17.67;;;;;;;16.93;52.33;97950.91;10370026;28;20653;-28
2023/01/25 00:41:41;;;;;;;25.30;17.42;;;;;;;16.96;51.75;97940.88;10368066;28;20042;-27
2023/01/25 00:46:42;;;;;;;23.88;17.02;;;;;;;16.95;52.00;97941.69;10367019;28;20048;-27
2023/01/25 00:51:42;;;;;;;25.33;17.60;;;;;;;16.97;51.88;97940.03;10369768;28;20099;-27
2023/01/25 00:56:43;;;;;;;26.23;17.95;;;;;;;16.96;52.14;97930.75;10366779;28;20034;-27
2023/01/25 01:01:44;;;;;;;26.35;17.35;;;;;;;16.96;52.37;97931.63;10366936;28;20030;-26
2023/01/25 01:06:44;;;;;;;24.00;15.73;;;;;;;16.96;52.00;97929.09;10367304;28;20034;-28
2023/01/25 01:11:45;;;;;;;25.10;16.45;;;;;;;16.98;52.04;97929.97;10368447;28;20289;-27
2023/01/25 01:16:46;;;;;;;27.65;16.25;;;;;;;16.98;51.70;97929.13;10367793;28;20042;-27
2023/01/25 01:21:46;;;;;;;23.77;15.95;;;;;;;16.95;52.14;97929.03;10368552;28;20176;-27
2023/01/25 01:26:46;;;;;;;22.53;15.80;;;;;;;16.96;51.90;97923.16;10361917;28;20045;-27
2023/01/25 01:31:50;;;;;;;19.47;14.83;;;;;;;16.96;52.28;97933.28;10365311;28;20296;-27
2023/01/25 01:36:55;;;;;;;21.00;14.45;;;;;;;16.95;52.25;97914.72;10364024;28;20037;-27
2023/01/25 01:41:56;;;;;;;22.05;14.93;;;;;;;16.93;52.15;97913.84;10365126;28;20059;-28
2023/01/25 01:46:58;;;;;;;20.88;15.20;;;;;;;16.96;52.25;97910.50;10364718;28;20049;-28
2023/01/25 01:52:16;;;;;;;18.52;13.52;;;;;;;16.92;52.32;97909.56;10366134;28;20037;-28
2023/01/25 01:57:20;;;;;;;20.35;14.25;;;;;;;16.94;51.95;97904.56;10364681;28;20026;-29
2023/01/25 02:02:23;;;;;;;20.45;14.30;;;;;;;16.97;51.92;97902.09;10363939;28;20033;-27
2023/01/25 02:07:35;;;;;;;17.95;13.27;;;;;;;16.92;51.85;97888.50;10365679;28;20026;-27
2023/01/25 02:12:37;;;;;;;19.42;13.23;;;;;;;16.94;52.42;97899.50;10358655;28;20068;-27
2023/01/25 02:17:38;;;;;;;17.70;12.57;;;;;;;16.97;51.88;97889.44;10365250;28;20034;-27
2023/01/25 02:22:47;;;;;;;21.58;15.13;;;;;;;16.98;52.16;97893.72;10363907;28;20105;-27
2023/01/25 02:28:05;;;;;;;18.10;13.77;;;;;;;16.96;52.25;97881.00;10366918;28;20038;-27
2023/01/25 02:33:05;;;;;;;20.08;13.63;;;;;;;17.00;51.92;97889.53;10359176;28;20091;-26
2023/01/25 02:38:07;;;;;;;25.67;13.23;;;;;;;16.98;51.73;97883.59;10364106;28;20059;-27
2023/01/25 02:43:07;;;;;;;16.52;12.88;;;;;;;16.95;52.17;97888.56;10363285;28;20293;-27
2023/01/25 02:48:08;;;;;;;19.20;12.85;;;;;;;16.94;52.46;97900.38;10364867;28;20494;-26
2023/01/25 02:53:09;;;;;;;16.90;12.07;;;;;;;16.93;52.07;97900.31;10364593;28;20038;-28
2023/01/25 02:58:09;;;;;;;19.63;14.70;;;;;;;16.95;51.98;97883.50;10361712;28;20041;-28
2023/01/25 03:03:10;;;;;;;22.33;13.93;;;;;;;16.95;51.73;97876.78;10364604;28;20034;-28
2023/01/25 03:08:10;;;;;;;16.63;12.27;;;;;;;16.99;51.58;97885.31;10363817;28;20041;-28
2023/01/25 03:13:11;;;;;;;16.70;12.43;;;;;;;16.98;52.06;97884.44;10356742;28;20088;-28
2023/01/25 03:18:11;;;;;;;16.52;11.20;;;;;;;16.99;52.12;97875.19;10369784;28;20789;-27
2023/01/25 03:23:12;;;;;;;19.27;12.02;;;;;;;17.00;51.72;97866.78;10366076;28;20080;-28
2023/01/25 03:28:12;;;;;;;16.27;11.80;;;;;;;16.99;51.83;97865.91;10362005;28;20831;-28
2023/01/25 03:33:13;;;;;;;16.42;11.85;;;;;;;17.01;52.18;97859.22;10371461;28;20053;-27
2023/01/25 03:38:14;;;;;;;17.27;11.93;;;;;;;16.99;52.02;97852.41;10360600;28;20029;-26
2023/01/25 03:43:17;;;;;;;16.20;11.13;;;;;;;17.01;51.97;97843.19;10356757;28;20087;-28
2023/01/25 03:48:23;;;;;;;15.18;10.75;;;;;;;17.00;51.99;97846.53;10369432;28;20154;-27
2023/01/25 03:53:28;;;;;;;15.68;11.15;;;;;;;16.97;52.38;97837.19;10365132;28;20535;-27
2023/01/25 03:58:33;;;;;;;13.45;10.20;;;;;;;16.97;52.51;97838.84;10369177;28;20018;-27
2023/01/25 04:03:34;;;;;;;15.07;10.65;;;;;;;16.96;52.31;97829.56;10370339;28;20033;-27
2023/01/25 04:08:36;;;;;;;15.93;10.57;;;;;;;16.99;52.14;97834.69;10364207;28;20026;-27
2023/01/25 04:13:38;;;;;;;13.77;10.13;;;;;;;16.99;51.67;97839.75;10366748;28;20030;-27
2023/01/25 04:18:42;;;;;;;13.60;10.07;;;;;;;16.99;52.15;97844.81;10370671;28;20561;-27
2023/01/25 04:23:43;;;;;;;14.35;10.40;;;;;;;16.99;51.94;97839.75;10366274;28;20030;-27
2023/01/25 04:28:43;;;;;;;14.57;10.80;;;;;;;16.99;52.28;97840.59;10367087;28;20030;-27
2023/01/25 04:33:44;;;;;;;11.70;8.80;;;;;;;16.97;52.45;97829.59;10385245;28;20057;-27
2023/01/25 04:38:46;;;;;;;13.88;9.20;;;;;;;17.00;52.24;97829.66;10371079;28;20079;-27
2023/01/25 04:43:46;;;;;;;15.70;10.07;;;;;;;16.96;52.14;97824.50;10358316;28;20038;-28
2023/01/25 04:48:49;;;;;;;13.57;9.57;;;;;;;16.99;51.95;97827.13;10369849;28;20057;-27
2023/01/25 04:53:51;;;;;;;15.88;10.20;;;;;;;16.99;52.14;97827.94;10366485;28;20581;-27
2023/01/25 04:58:52;;;;;;;12.18;9.70;;;;;;;17.03;51.89;97828.88;10365636;28;20026;-27
2023/01/25 05:03:52;;;;;;;12.05;10.05;;;;;;;17.02;52.26;97834.75;10361637;28;20026;-27
2023/01/25 05:09:10;;;;;;;11.30;8.70;;;;;;;17.02;51.91;97827.19;10334820;28;20105;-27
2023/01/25 05:14:12;;;;;;;15.40;9.10;;;;;;;17.07;52.04;97805.38;10329775;28;20887;-27
2023/01/25 05:19:13;;;;;;;22.48;9.50;;;;;;;17.08;51.64;97814.69;10362758;28;20036;-27
2023/01/25 05:24:30;;;;;;;11.93;9.00;;;;;;;17.13;51.40;97805.50;10341342;28;20033;-28
2023/01/25 05:29:40;;;;;;;11.20;7.88;;;;;;;17.12;51.39;97807.19;10369467;28;20033;-29
2023/01/25 05:34:43;;;;;;;12.88;9.07;;;;;;;17.12;51.13;97811.38;10366891;28;20029;-28
2023/01/25 05:39:44;;;;;;;11.90;8.07;;;;;;;17.12;50.01;97808.84;10362371;28;20142;-27
2023/01/25 05:44:45;;;;;;;10.52;8.20;;;;;;;17.10;50.19;97810.50;10360123;28;20122;-27
2023/01/25 05:49:45;;;;;;;9.93;8.13;;;;;;;17.11;50.49;97799.56;10356518;28;20042;-27
2023/01/25 05:54:54;;;;;;;11.68;8.95;;;;;;;17.07;50.75;97800.31;10359361;28;20030;-27
2023/01/25 05:59:54;;;;;;;14.73;9.00;;;;;;;17.01;51.18;97805.22;10349587;28;20037;-27
2023/01/25 06:04:55;;;;;;;14.00;8.80;;;;;;;17.01;50.06;97797.63;10347351;28;20486;-27
2023/01/25 06:09:56;;;;;;;11.02;8.43;;;;;;;16.88;48.45;97805.75;10358382;28;20034;-26
2023/01/25 06:14:56;;;;;;;13.32;9.55;;;;;;;16.91;48.33;97788.13;10362931;28;20026;-27
2023/01/25 06:19:57;;;;;;;14.95;9.70;;;;;;;16.98;49.26;97800.13;10364760;28;20034;-28
2023/01/25 06:25:07;;;;;;;17.27;8.93;;;;;;;16.94;49.89;97805.91;10359747;28;20416;-27
2023/01/25 06:30:08;;;;;;;16.95;8.60;;;;;;;16.94;50.10;97804.25;10365106;28;20296;-28
2023/01/25 06:35:08;;;;;;;23.10;8.88;;;;;;;16.89;48.67;97804.97;10359292;28;20490;-27
2023/01/25 06:40:09;;;;;;;11.70;8.63;;;;;;;16.93;49.45;97800.00;10369142;28;20033;-27
2023/01/25 06:45:10;;;;;;;16.60;8.25;;;;;;;16.95;49.67;97800.03;10363796;28;20120;-28
2023/01/25 06:50:11;;;;;;;17.67;9.27;;;;;;;16.93;49.72;97799.13;10372338;28;20037;-28
2023/01/25 06:55:12;;;;;;;15.80;7.55;;;;;;;16.92;49.23;97794.91;10371394;28;20045;-27
2023/01/25 07:00:15;;;;;;;9.45;6.72;;;;;;;16.90;49.60;97781.38;10380832;28;20026;-26
2023/01/25 07:05:15;;;;;;;11.30;7.22;;;;;;;16.92;49.40;97784.78;10377150;28;20501;-28
2023/01/25 07:10:16;;;;;;;10.17;7.10;;;;;;;16.89;49.71;97784.72;10374093;28;20044;-27
2023/01/25 07:15:16;;;;;;;9.85;6.93;;;;;;;16.86;49.78;97792.22;10371002;28;20292;-27
2023/01/25 07:20:16;;;;;;;12.17;6.90;;;;;;;16.84;49.73;97793.88;10373377;28;20034;-27
2023/01/25 07:25:17;;;;;;;10.10;7.17;;;;;;;16.86;49.69;97789.69;10369808;28;20042;-26
2023/01/25 07:30:20;;;;;;;8.67;6.07;;;;;;;16.81;49.65;97786.22;10374123;28;20293;-27
2023/01/25 07:35:20;;;;;;;11.48;7.15;;;;;;;16.75;49.34;97779.31;10385284;28;20040;-26
2023/01/25 07:40:23;;;;;;;10.13;7.00;;;;;;;16.79;49.54;97793.75;10368430;28;20030;-27
2023/01/25 07:45:29;;;;;;;10.40;7.38;;;;;;;16.79;49.64;97792.88;10365336;28;20041;-27
2023/01/25 07:50:29;;;;;;;7.97;6.33;;;;;;;16.79;49.60;97792.88;10371246;28;20042;-27
2023/01/25 07:55:30;;;;;;;7.87;5.83;;;;;;;16.77;49.36;97791.19;10383663;28;20397;-26
2023/01/25 08:00:30;;;;;;;9.73;6.43;;;;;;;16.77;49.70;97797.06;10365514;28;20292;-27
2023/01/25 08:05:30;;;;;;;8.37;6.00;;;;;;;16.77;49.04;97790.34;10370263;28;20112;-27
2023/01/25 08:10:31;;;;;;;8.00;6.43;;;;;;;16.78;49.11;97783.59;10375556;28;20032;-27
2023/01/25 08:15:32;;;;;;;8.57;6.63;;;;;;;16.77;49.12;97769.25;10368410;28;20548;-27
2023/01/25 08:20:32;;;;;;;8.85;6.25;;;;;;;16.75;49.54;97760.78;10377626;28;20036;-27
2023/01/25 08:25:32;;;;;;;9.27;6.40;;;;;;;16.74;49.43;97764.13;10371112;28;20100;-26
2023/01/25 08:30:33;;;;;;;7.83;5.77;;;;;;;16.77;49.21;97771.78;10372800;28;20040;-27
2023/01/25 08:35:35;;;;;;;8.90;6.67;;;;;;;16.77;49.37;97767.59;10369603;28;20029;-28
2023/01/25 08:40:35;;;;;;;8.38;6.00;;;;;;;16.76;49.22;97765.00;10356538;28;20033;-27
2023/01/25 08:45:36;;;;;;;8.23;6.07;;;;;;;16.67;49.42;97747.09;10366192;28;20042;-28
2023/01/25 08:50:36;;;;;;;8.02;6.57;;;;;;;16.75;49.00;97753.19;10365311;28;20512;-27
2023/01/25 08:55:37;;;;;;;6.57;5.23;;;;;;;16.74;48.92;97751.50;10367282;28;20046;-27
2023/01/25 09:00:38;;;;;;;7.17;5.43;;;;;;;16.73;49.08;97750.63;10359067;28;20026;-27
2023/01/25 09:05:39;;;;;;;7.47;5.63;;;;;;;16.72;49.06;97762.38;10369406;28;20041;-28
2023/01/25 09:10:40;;;;;;;6.65;5.80;;;;;;;16.71;48.95;97750.56;10363864;28;20051;-28
2023/01/25 09:15:40;;;;;;;6.57;5.30;;;;;;;16.72;48.81;97755.66;10365364;28;20046;-27
2023/01/25 09:20:40;;;;;;;7.50;5.23;;;;;;;16.71;48.84;97753.94;10375479;28;20108;-27
2023/01/25 09:25:41;;;;;;;6.10;4.80;;;;;;;16.71;48.92;97745.50;10373031;28;20047;-27
2023/01/25 09:30:42;;;;;;;8.68;5.05;;;;;;;16.69;49.19;97752.22;10363436;28;20034;-28
2023/01/25 09:35:48;;;;;;;6.72;4.65;;;;;;;16.68;48.96;97741.22;10378673;28;20041;-27
2023/01/25 09:41:03;;;;;;;6.75;5.60;;;;;;;16.71;48.74;97751.41;10366772;28;20247;-27
2023/01/25 09:46:24;;;;;;;6.55;5.35;;;;;;;16.71;49.10;97751.41;10366890;28;20041;-27
2023/01/25 09:51:37;;;;;;;7.22;5.47;;;;;;;16.68;49.14;97751.34;10358924;28;20041;-26
2023/01/25 09:56:38;;;;;;;5.80;4.82;;;;;;;16.67;48.91;97750.47;10367731;28;20079;-27
2023/01/25 10:01:54;;;;;;;7.68;5.72;;;;;;;16.67;49.00;97749.63;10372306;28;20117;-28
2023/01/25 10:07:14;;;;;;;6.25;5.28;;;;;;;16.68;48.98;97751.34;10355915;28;20042;-27
2023/01/25 10:12:20;;;;;;;6.88;5.40;;;;;;;16.66;48.81;97749.59;10354737;28;20029;-28
2023/01/25 10:17:36;;;;;;;6.63;5.65;;;;;;;16.65;48.72;97746.22;10362706;28;20038;-27
2023/01/25 10:22:48;;;;;;;10.88;6.75;;;;;;;16.65;48.90;97738.63;10363736;28;20041;-27
2023/01/25 10:28:19;;;;;;;7.68;4.75;;;;;;;16.65;49.05;97736.09;10378723;28;20030;-27
2023/01/25 10:33:23;;;;;;;5.28;4.78;;;;;;;16.64;48.57;97724.28;10378203;28;20041;-27
2023/01/25 10:38:29;;;;;;;5.63;4.68;;;;;;;16.67;48.54;97725.19;10371489;28;20041;-26
2023/01/25 10:43:30;;;;;;;5.82;4.70;;;;;;;16.67;48.57;97715.91;10375252;28;20045;-26
2023/01/25 10:48:35;;;;;;;7.33;4.83;;;;;;;16.65;48.91;97705.75;10382323;28;20046;-28
2023/01/25 10:53:38;;;;;;;6.47;4.82;;;;;;;16.66;48.42;97701.53;10371049;28;20293;-27
2023/01/25 10:58:41;;;;;;;5.32;4.38;;;;;;;16.67;48.95;97688.09;10379628;28;20112;-27
2023/01/25 11:03:45;;;;;;;6.55;5.20;;;;;;;16.71;48.69;97700.00;10374093;28;20526;-27
2023/01/25 11:08:45;;;;;;;6.15;4.93;;;;;;;16.66;48.73;97688.91;10380808;28;20161;-27
2023/01/25 11:13:46;;;;;;;5.60;4.73;;;;;;;16.62;48.72;97687.97;10370780;28;20616;-27
2023/01/25 11:18:52;;;;;;;6.90;5.43;;;;;;;16.66;47.34;97682.19;10381534;28;20029;-27
2023/01/25 11:24:10;;;;;;;7.17;5.53;;;;;;;16.67;49.20;97667.84;10372739;28;20038;-27
2023/01/25 11:29:13;;;;;;;6.18;4.55;;;;;;;16.74;49.50;97662.97;10371832;28;20049;-26
2023/01/25 11:34:17;;;;;;;5.40;4.80;;;;;;;16.72;49.92;97652.00;10372450;28;20073;-27
2023/01/25 11:39:25;;;;;;;5.50;4.32;;;;;;;16.75;49.31;97652.88;10366318;28;20034;-28
2023/01/25 11:44:47;;;;;;;5.18;4.47;;;;;;;16.77;49.43;97645.34;10370721;28;20077;-27
2023/01/25 11:50:07;;;;;;;6.00;4.63;;;;;;;16.77;49.60;97647.03;10372190;28;20038;-27
2023/01/25 11:55:18;;;;;;;6.15;4.60;;;;;;;16.80;49.19;97625.16;10370442;28;20548;-27
2023/01/25 12:00:18;;;;;;;6.55;4.75;;;;;;;16.83;49.09;97612.59;10361603;28;20034;-28
2023/01/25 12:05:39;;;;;;;5.70;4.50;;;;;;;16.90;49.11;97615.28;10370501;28;20039;-27
2023/01/25 12:10:48;;;;;;;5.30;4.60;;;;;;;16.89;48.75;97605.16;10365493;28;20041;-27
2023/01/25 12:16:10;;;;;;;9.48;4.95;;;;;;;16.95;49.17;97600.19;10359863;28;20034;-27
2023/01/25 12:21:54;;;;;;;6.68;4.65;;;;;;;16.88;49.56;97588.22;10361905;28;20061;-27
2023/01/25 12:27:18;;;;;;;6.68;5.65;;;;;;;16.95;47.52;97565.63;10374765;28;20029;-29
2023/01/25 12:32:30;;;;;;;8.73;5.85;;;;;;;16.85;47.54;97553.66;10362818;28;20048;-27
2023/01/25 12:37:35;;;;;;;8.80;5.60;;;;;;;16.85;48.67;97542.66;10370896;28;20117;-27
2023/01/25 12:43:00;;;;;;;7.40;4.45;;;;;;;16.80;48.68;97526.53;10367792;28;20040;-28
2023/01/25 12:48:13;;;;;;;16.20;6.30;;;;;;;16.85;49.55;97517.38;10364213;28;20253;-27
2023/01/25 12:53:32;;;;;;;9.88;5.93;;;;;;;16.88;49.05;97513.22;10367761;28;20037;-26
2023/01/25 12:58:32;;;;;;;8.38;5.30;;;;;;;16.87;49.33;97501.41;10358320;28;20141;-27
2023/01/25 13:03:57;;;;;;;16.30;5.72;;;;;;;16.92;49.32;97498.97;10369443;28;20113;-28
2023/01/25 13:09:03;;;;;;;8.65;5.05;;;;;;;16.82;51.17;97492.03;10364074;28;20038;-28
2023/01/25 13:14:15;;;;;;;37.70;8.80;;;;;;;16.82;48.48;97486.97;10361494;28;20093;-26
2023/01/25 13:19:28;;;;;;;11.57;6.10;;;;;;;16.81;51.01;97480.22;10368054;28;20121;-28
2023/01/25 13:24:30;;;;;;;19.80;5.88;;;;;;;16.88;50.64;97487.94;10366574;28;20124;-27
2023/01/25 13:29:46;;;;;;;11.63;5.20;;;;;;;16.92;51.13;97484.63;10359588;28;20139;-27
2023/01/25 13:34:49;;;;;;;19.75;5.65;;;;;;;16.91;51.29;97487.97;10377803;28;20049;-28
2023/01/25 13:39:56;;;;;;;14.25;5.38;;;;;;;16.84;50.80;97481.09;10374189;28;20038;-28
2023/01/25 13:45:19;;;;;;;19.35;5.90;;;;;;;16.84;50.96;97473.50;10377335;28;20498;-27
2023/01/25 13:50:24;;;;;;;11.48;5.35;;;;;;;16.82;50.53;97469.28;10367860;28;20037;-28
2023/01/25 13:55:26;;;;;;;14.65;6.85;;;;;;;16.80;51.16;97463.31;10356015;28;20038;-27
2023/01/25 14:00:26;;;;;;;16.38;7.60;;;;;;;16.79;51.52;97461.63;10362401;28;20061;-27
2023/01/25 14:05:27;;;;;;;15.00;8.30;;;;;;;16.80;51.35;97464.19;10365600;28;20120;-25
2023/01/25 14:10:27;;;;;;;15.07;8.38;;;;;;;16.81;51.39;97457.47;10365258;28;20038;-28
2023/01/25 14:15:30;;;;;;;16.85;7.88;;;;;;;16.87;50.44;97450.81;10361636;28;20056;-27
2023/01/25 14:20:31;;;;;;;18.90;8.10;;;;;;;16.95;49.97;97453.47;10366515;28;20030;-27
2023/01/25 14:25:32;;;;;;;17.80;8.68;;;;;;;16.93;51.50;97439.97;10363032;28;20030;-28
2023/01/25 14:30:34;;;;;;;13.27;7.45;;;;;;;16.98;49.66;97436.69;10361751;28;20034;-26
2023/01/25 14:35:36;;;;;;;18.38;7.88;;;;;;;17.01;49.86;97443.47;10362071;28;20038;-27
2023/01/25 14:40:37;;;;;;;12.90;7.65;;;;;;;16.99;50.45;97435.00;10360635;28;20109;-28
2023/01/25 14:45:37;;;;;;;17.27;8.85;;;;;;;16.97;48.84;97434.13;10361983;28;20173;-27
2023/01/25 14:50:39;;;;;;;13.80;6.83;;;;;;;16.96;50.02;97429.88;10364342;28;20394;-27
2023/01/25 14:55:43;;;;;;;13.02;7.32;;;;;;;16.97;49.73;97431.59;10359094;28;20703;-26
2023/01/25 15:01:01;;;;;;;12.05;7.28;;;;;;;16.96;49.90;97434.94;10388633;28;20526;-28
2023/01/25 15:06:03;;;;;;;14.43;7.72;;;;;;;16.95;49.92;97434.09;10366531;28;20033;-26
2023/01/25 15:16:33;;;;;;;12.13;7.75;;;;;;;16.92;49.53;97433.19;10365112;28;20462;-26
2023/01/25 15:21:33;;;;;;;10.77;7.05;;;;;;;16.91;50.34;97426.44;10366841;28;20423;-27
2023/01/25 15:26:35;;;;;;;11.80;7.20;;;;;;;16.90;50.30;97417.16;10366163;28;20034;-27
2023/01/25 15:31:36;;;;;;;11.70;7.20;;;;;;;16.86;50.90;97417.91;10367346;28;20401;-27
2023/01/25 15:36:37;;;;;;;8.95;6.53;;;;;;;16.86;50.67;97413.72;10365202;28;20410;-27
2023/01/25 15:41:37;;;;;;;10.53;6.80;;;;;;;16.92;49.53;97412.97;10366666;28;20029;-27
2023/01/25 15:46:41;;;;;;;14.57;6.65;;;;;;;16.91;49.86;97411.28;10366862;28;20040;-28
2023/01/25 15:51:42;;;;;;;10.65;6.72;;;;;;;16.88;49.58;97407.00;10362825;28;20049;-28
2023/01/25 15:56:50;;;;;;;10.87;7.20;;;;;;;16.89;50.07;97397.75;10377235;28;20121;-27
2023/01/25 16:01:50;;;;;;;11.65;6.75;;;;;;;16.90;49.35;97407.03;10367288;28;20842;-27
2023/01/25 16:06:53;;;;;;;8.10;6.20;;;;;;;16.91;49.94;97398.63;10370367;28;20076;-27
2023/01/25 16:11:55;;;;;;;10.82;6.45;;;;;;;16.92;49.46;97382.63;10369551;28;20644;-26
2023/01/25 16:16:58;;;;;;;9.95;6.78;;;;;;;16.89;50.13;97372.47;10358146;28;20088;-27
2023/01/25 16:22:00;;;;;;;9.25;6.32;;;;;;;16.91;49.26;97371.63;10366875;28;20394;-27
2023/01/25 16:27:01;;;;;;;10.85;6.85;;;;;;;16.91;48.31;97371.63;10363294;28;20121;-27
2023/01/25 16:32:01;;;;;;;11.07;6.35;;;;;;;16.92;49.75;97368.28;10370938;28;20034;-28
2023/01/25 16:37:02;;;;;;;16.47;8.43;;;;;;;17.00;49.09;97365.88;10377098;28;20153;-26
2023/01/25 16:42:02;;;;;;;34.77;16.93;;;;;;;16.99;50.35;97364.19;10361866;28;20041;-28
2023/01/25 16:47:03;;;;;;;29.17;16.13;;;;;;;17.02;50.74;97364.22;10373004;28;20319;-27
2023/01/25 16:52:04;;;;;;;36.83;17.30;;;;;;;17.00;50.55;97354.06;10365210;28;20501;-27
2023/01/25 16:57:06;;;;;;;29.67;14.90;;;;;;;16.92;47.84;97322.75;10366279;28;20030;-27
2023/01/25 17:02:11;;;;;;;36.65;17.55;;;;;;;16.97;50.71;97341.38;10369615;28;20105;-27
2023/01/25 17:07:12;;;;;;;28.60;15.77;;;;;;;16.99;50.39;97334.66;10363460;28;20037;-27
2023/01/25 17:12:13;;;;;;;36.03;18.98;;;;;;;17.01;51.28;97339.75;10363933;28;20034;-26
2023/01/25 17:17:13;;;;;;;39.03;19.63;;;;;;;16.99;51.55;97338.91;10356712;28;20508;-28
2023/01/25 17:22:13;;;;;;;32.80;20.20;;;;;;;16.98;50.84;97332.13;10365267;28;20468;-28
2023/01/25 17:27:14;;;;;;;30.43;17.73;;;;;;;16.97;50.15;97341.38;10364625;28;20410;-27
2023/01/25 17:32:15;;;;;;;29.20;19.08;;;;;;;16.89;50.38;97337.06;10367558;28;20033;-27
2023/01/25 17:37:15;;;;;;;29.93;19.23;;;;;;;16.95;50.94;97342.19;10355361;28;20030;-28
2023/01/25 17:42:15;;;;;;;28.90;18.03;;;;;;;16.88;51.09;97325.22;10362743;28;20880;-28
2023/01/25 17:47:16;;;;;;;29.77;17.97;;;;;;;16.92;51.04;97327.81;10362834;28;20402;-27
2023/01/25 17:52:16;;;;;;;32.00;18.33;;;;;;;16.94;50.76;97331.22;10364079;28;20296;-27
2023/01/25 17:57:22;;;;;;;28.87;16.77;;;;;;;16.93;51.52;97328.66;10362231;28;20034;-28
2023/01/25 18:02:22;;;;;;;28.77;15.53;;;;;;;16.96;50.66;97321.13;10366236;28;20032;-27
2023/01/25 18:07:24;;;;;;;25.70;16.60;;;;;;;16.95;51.14;97321.94;10360288;28;20026;-27
2023/01/25 18:12:24;;;;;;;28.38;16.80;;;;;;;17.00;51.53;97317.81;10365435;28;20034;-27
2023/01/25 18:17:24;;;;;;;36.63;15.60;;;;;;;17.04;50.62;97324.63;10367274;28;20036;-27
2023/01/25 18:22:25;;;;;;;30.80;16.37;;;;;;;17.03;50.73;97306.06;10365719;28;20088;-27
2023/01/25 18:27:26;;;;;;;32.23;16.63;;;;;;;17.00;52.67;97305.19;10362067;28;20037;-27
2023/01/25 18:32:29;;;;;;;23.55;16.23;;;;;;;16.96;52.31;97299.22;10366820;28;20474;-27
2023/01/25 18:37:34;;;;;;;25.75;16.05;;;;;;;16.94;52.47;97303.41;10357920;28;20120;-27
2023/01/25 18:42:34;;;;;;;25.38;17.15;;;;;;;16.90;52.12;97301.66;10358261;28;20033;-27
2023/01/25 18:47:37;;;;;;;27.20;15.63;;;;;;;16.89;52.18;97301.66;10371725;28;20091;-28
2023/01/25 18:52:38;;;;;;;28.80;16.23;;;;;;;16.89;52.26;97291.53;10359847;28;20067;-27
2023/01/25 18:57:38;;;;;;;22.70;14.90;;;;;;;16.85;52.67;97294.81;10367286;28;20092;-27
2023/01/25 19:02:38;;;;;;;26.87;14.57;;;;;;;16.92;51.25;97301.69;10374196;28;20049;-26
2023/01/25 19:07:39;;;;;;;20.87;12.37;;;;;;;17.01;49.47;97287.50;10364808;28;20034;-27
2023/01/25 19:12:39;;;;;;;17.90;11.90;;;;;;;17.06;49.28;97280.81;10363439;28;20034;-28
2023/01/25 19:17:42;;;;;;;19.33;12.53;;;;;;;17.08;50.81;97283.38;10367000;28;20030;-28
2023/01/25 19:22:42;;;;;;;16.67;12.05;;;;;;;17.11;49.74;97278.34;10375570;28;20146;-27
2023/01/25 19:27:45;;;;;;;20.55;13.38;;;;;;;17.13;50.57;97261.50;10364187;28;20042;-27
2023/01/25 19:32:45;;;;;;;20.83;13.07;;;;;;;17.11;51.09;97258.13;10372329;28;20034;-27
2023/01/25 19:37:46;;;;;;;18.17;13.30;;;;;;;17.15;49.46;97254.81;10370120;28;20034;-26
2023/01/25 19:42:46;;;;;;;15.65;11.90;;;;;;;17.16;50.24;97246.38;10364220;28;20032;-27
2023/01/25 19:47:46;;;;;;;17.87;11.97;;;;;;;17.10;51.98;97246.28;10359528;28;20042;-26
2023/01/25 19:52:47;;;;;;;19.77;12.53;;;;;;;17.05;52.24;97232.72;10355168;28;20669;-27
2023/01/25 19:57:47;;;;;;;15.80;11.40;;;;;;;17.07;51.81;97251.31;10362377;28;20495;-27
2023/01/25 20:02:47;;;;;;;18.77;11.63;;;;;;;17.07;51.53;97233.63;10370465;28;20133;-26
2023/01/25 20:07:48;;;;;;;16.23;11.13;;;;;;;17.07;51.11;97236.97;10363827;28;20034;-29
2023/01/25 20:12:48;;;;;;;16.97;10.47;;;;;;;17.08;50.94;97230.25;10355734;28;20050;-27
2023/01/25 20:17:48;;;;;;;14.60;10.97;;;;;;;17.07;51.99;97226.03;10370387;28;20146;-27
2023/01/25 20:22:51;;;;;;;14.38;10.93;;;;;;;17.06;52.12;97224.34;10364833;28;20041;-27
2023/01/25 20:27:51;;;;;;;14.80;10.85;;;;;;;17.10;51.03;97218.47;10363666;28;20046;-27
2023/01/25 20:32:51;;;;;;;15.10;10.60;;;;;;;17.10;51.65;97216.81;10361516;28;20044;-27
2023/01/25 20:37:52;;;;;;;13.67;10.60;;;;;;;17.11;50.38;97213.44;10368117;28;20038;-27
2023/01/25 20:42:52;;;;;;;13.33;10.03;;;;;;;17.12;50.36;97209.22;10365038;28;20048;-28
2023/01/25 20:47:52;;;;;;;13.17;9.97;;;;;;;17.14;50.19;97202.50;10365755;28;20462;-28
2023/01/25 20:52:53;;;;;;;14.13;10.03;;;;;;;17.15;48.67;97201.69;10361148;28;20038;-28
2023/01/25 20:57:53;;;;;;;13.17;10.33;;;;;;;17.18;48.94;97194.13;10369647;28;20044;-27
2023/01/25 21:02:53;;;;;;;13.63;10.20;;;;;;;17.21;47.58;97194.16;10358292;28;20048;-27
2023/01/25 21:07:54;;;;;;;13.40;9.83;;;;;;;17.19;49.56;97186.56;10363860;28;20107;-28
2023/01/25 21:12:54;;;;;;;13.67;10.33;;;;;;;17.16;50.03;97188.19;10369467;28;20084;-28
2023/01/25 21:17:54;;;;;;;14.40;9.93;;;;;;;17.18;49.84;97189.91;10375992;28;20414;-27
2023/01/25 21:22:55;;;;;;;12.83;9.70;;;;;;;17.17;49.96;97187.38;10367191;28;20300;-28
2023/01/25 21:27:55;;;;;;;13.47;10.23;;;;;;;17.15;49.73;97176.38;10363017;28;20046;-28
2023/01/25 21:32:58;;;;;;;14.97;9.37;;;;;;;17.15;49.73;97168.78;10365445;28;20042;-27
2023/01/25 21:37:58;;;;;;;16.08;9.93;;;;;;;17.11;49.87;97167.03;10362494;28;20233;-28
2023/01/25 21:42:59;;;;;;;15.18;10.15;;;;;;;17.11;49.70;97167.03;10366235;28;20533;-27
2023/01/25 21:47:59;;;;;;;13.87;10.27;;;;;;;17.10;49.72;97156.09;10367172;28;20089;-27
2023/01/25 21:52:59;;;;;;;11.87;9.53;;;;;;;17.12;48.82;97159.47;10365207;28;20472;-27
2023/01/25 21:58:00;;;;;;;12.70;9.50;;;;;;;17.12;49.18;97153.56;10365257;28;20285;-27
2023/01/25 22:03:01;;;;;;;10.93;8.60;;;;;;;17.10;49.68;97145.97;10366761;28;20034;-27
2023/01/25 22:08:01;;;;;;;12.63;9.20;;;;;;;17.09;48.47;97136.66;10359802;28;20041;-29
2023/01/25 22:13:01;;;;;;;11.10;8.57;;;;;;;17.08;49.61;97131.59;10362747;28;20037;-27
2023/01/25 22:18:02;;;;;;;11.90;8.53;;;;;;;17.03;49.56;97129.00;10357382;28;20277;-27
2023/01/25 22:23:02;;;;;;;11.40;9.38;;;;;;;17.05;48.08;97121.41;10364642;28;20532;-27
2023/01/25 22:28:05;;;;;;;12.30;9.07;;;;;;;17.09;48.43;97123.16;10360336;28;20038;-27
2023/01/25 22:33:05;;;;;;;10.55;8.68;;;;;;;17.11;47.76;97116.44;10366465;28;20037;-27
2023/01/25 22:38:05;;;;;;;10.50;9.17;;;;;;;17.10;48.67;97117.28;10358716;28;20404;-27
2023/01/25 22:43:06;;;;;;;9.63;8.07;;;;;;;17.08;48.52;97116.41;10359713;28;20494;-27
2023/01/25 22:48:06;;;;;;;10.33;8.93;;;;;;;17.07;48.50;97114.72;10360126;28;20520;-27
2023/01/25 22:53:06;;;;;;;11.73;8.80;;;;;;;17.07;48.00;97112.19;10373782;28;20042;-27
2023/01/25 22:58:08;;;;;;;11.80;8.33;;;;;;;17.07;47.40;97113.03;10363012;28;20041;-27
2023/01/25 23:03:09;;;;;;;13.48;8.80;;;;;;;17.04;48.76;97109.59;10372763;28;20125;-27
2023/01/25 23:08:10;;;;;;;9.30;7.78;;;;;;;17.07;48.17;97109.66;10361813;28;20080;-27
2023/01/25 23:13:10;;;;;;;11.00;8.53;;;;;;;17.02;49.57;97102.03;10351245;28;20088;-28
2023/01/25 23:23:50;;;;;;;11.70;9.00;;;;;;;16.94;50.55;97097.69;10270404;28;20186;-29